Kyrock, Kentucky
Current Conditions -  °F | °C
As of 3:53 PM on Saturday 25 Oct 2014 (Local Time) from KBWG Reporting Station
Clear Clear  
Wind Chill: 78°   Ceiling: Unl
Heat Index: 79°   Visibility: 10mi
Dew Point: 60°   Wind: 8mph
Humidity: 54%   Direction: 290°WNW
Pressure: 29.99"   Gusts: NA
Location:  37.2612°N, 86.3064°W
Report Text: KBWG 252053Z AUTO 29007KT 10SM CLR 26/16 A2999 RMK AO2 SLP152 T02560156 56008
Loading
Personal Weather Stations






























Interactive Weather Map
Tropical Storm Tracking
New forecast layout! Learn more

10-Day Weather Forecast

Advertisements
Track Severe Weather on mobile